Terminal Aerodrome Forecast
Issued by NWS

Home | Current Version | Previous Version | Graphics & Text | Print | Product List | Glossary On
Versions: 1 2 3 4 5 6 7 8 9 10 11 12 13 14 15 16
128
FTUS43 KMPX 250536
TAFRWF
TAF
KRWF 250536Z 2506/2606 24006KT P6SM FEW250
     FM251800 28012G18KT P6SM FEW045
     FM260100 30006KT P6SM SKC=

USA.gov is the U.S. government's official web portal to all federal, state and local government web resources and services.